DRI Storm Peak Lab. Weather observations

Data are for 5 minute period ending at time listed.
 Day   Time    Ave.   Ave.  Ave.  Vector  Max.   Total    Baro.    Solar      Aerosol      Ave.  Ultrafine   Snow  
  of    of     Air    Rel.  Wind   Wind   Wind  Precip.   Pres.  Radiation   Aerosol      Ozone   Aerosol    Depth 
Year   Day     Temp.  Hum.  Speed  Dir.   Gust                               Ave.   Max.            Ave.           
2016   (MST)    F      %     mph   deg.    mph    in.      mb.     w/m2         #/cm3      ppbv    #/cm3      in.  
-------------------------------------------------------------------------------------------------------------------
 150   19:10   40.9    66    2.0   294     2.7   999.00    693.9    999.0    999000   999000   999.0    999000   999.0
 150   19:15   40.7    66    3.0   294     3.7   999.00    694.0    999.0    999000   999000   999.0    999000   999.0
 150   19:20   40.5    67    3.0   294     4.0   999.00    694.0    999.0    999000   999000   999.0    999000   999.0
 150   19:25   40.4    67    2.3   295     2.9   999.00    694.1    999.0    999000   999000   999.0    999000   999.0
 150   19:30   40.4    67    2.7   295     3.5   999.00    694.1    999.0    999000   999000   999.0    999000   999.0
 150   19:35   40.2    67    1.8   296     1.8   999.00    694.1    999.0    999000   999000   999.0    999000   999.0
 150   19:40   40.4    65    2.1   296     2.9   999.00    694.2    999.0    999000   999000   999.0    999000   999.0
 150   19:45   40.8    64    3.2   296     4.0   999.00    694.2    999.0    999000   999000   999.0    999000   999.0
 150   19:50   40.9    62    2.5   296     3.3   999.00    694.2    999.0    999000   999000   999.0    999000   999.0
 150   19:55   40.9    63    2.7   296     3.1   999.00    694.2    999.0    999000   999000   999.0    999000   999.0
 150   20:00   40.7    64    2.9   296     3.1   999.00    694.2    999.0    999000   999000   999.0    999000   999.0
 150   20:05   40.6    64    2.8   296     3.3   999.00    694.2    999.0    999000   999000   999.0    999000   999.0
 150   20:10   40.3    64    2.8   288     3.5   999.00    694.2    999.0    999000   999000   999.0    999000   999.0
 150   20:15   40.3    65    2.6   287     2.9   999.00    694.3    999.0    999000   999000   999.0    999000   999.0
 150   20:20   40.2    65    2.5   285     3.1   999.00    694.3    999.0    999000   999000   999.0    999000   999.0
 150   20:25   40.2    64    1.8   284     2.4   999.00    694.3    999.0    999000   999000   999.0    999000   999.0
 150   20:30   40.3    64    1.8   284     2.4   999.00    694.3    999.0    999000   999000   999.0    999000   999.0
 150   20:35   40.3    62    1.8   284     1.8   999.00    694.3    999.0    999000   999000   999.0    999000   999.0
 150   20:40   40.6    62    1.8   284     1.8   999.00    694.4    999.0    999000   999000   999.0    999000   999.0
 150   20:45   41.0    62    1.8   279     1.8   999.00    694.3    999.0    999000   999000   999.0    999000   999.0
 150   20:50   41.0    62    2.6   264     3.5   999.00    694.3    999.0    999000   999000   999.0    999000   999.0
 150   20:55   40.7    63    3.2   253     3.5   999.00    694.3    999.0    999000   999000   999.0    999000   999.0
 150   21:00   40.5    63    2.9   248     3.5   999.00    694.2    999.0    999000   999000   999.0    999000   999.0
 150   21:05   40.5    63    2.5   208     3.3   999.00    694.3    999.0    999000   999000   999.0    999000   999.0
 150   21:10   40.8    62    3.1   193     3.3   999.00    694.3    999.0    999000   999000   999.0    999000   999.0
 150   21:15   40.8    62    3.1   191     3.5   999.00    694.3    999.0    999000   999000   999.0    999000   999.0
 150   21:20   40.6    63    2.9   191     3.5   999.00    694.3    999.0    999000   999000   999.0    999000   999.0
 150   21:25   40.4    63    2.8   190     3.1   999.00    694.2    999.0    999000   999000   999.0    999000   999.0
 150   21:30   40.0    64    2.0   189     2.5   999.00    694.3    999.0    999000   999000   999.0    999000   999.0
 150   21:35   39.1    66    1.8   189     1.8   999.00    694.2    999.0    999000   999000   999.0    999000   999.0
 150   21:40   39.2    67    1.8   189     1.8   999.00    694.2    999.0    999000   999000   999.0    999000   999.0
 150   21:45   39.2    67    1.8   189     1.8   999.00    694.2    999.0    999000   999000   999.0    999000   999.0
 150   21:50   39.1    68    2.2   174     3.3   999.00    694.1    999.0    999000   999000   999.0    999000   999.0
 150   21:55   38.6    70    3.1   150     3.7   999.00    694.0    999.0    999000   999000   999.0    999000   999.0
 150   22:00   38.2    71    3.5   137     5.3   999.00    694.1    999.0    999000   999000   999.0    999000   999.0
 150   22:05   37.9    72    2.5   134     3.5   999.00    694.1    999.0    999000   999000   999.0    999000   999.0
 150   22:10   37.7    73    2.6   132     3.3   999.00    694.0    999.0    999000   999000   999.0    999000   999.0
 150   22:15   37.9    72    2.4   129     2.9   999.00    694.0    999.0    999000   999000   999.0    999000   999.0
 150   22:20   37.9    72    3.0   128     4.0   999.00    694.0    999.0    999000   999000   999.0    999000   999.0
 150   22:25   38.0    72    3.9   125     4.8   999.00    693.9    999.0    999000   999000   999.0    999000   999.0
 150   22:30   37.9    73    5.3   122     8.5   999.00    693.9    999.0    999000   999000   999.0    999000   999.0
 150   22:35   37.8    73    5.9   122     7.8   999.00    693.7    999.0    999000   999000   999.0    999000   999.0
 150   22:40   38.0    72    3.5   119     5.5   999.00    693.7    999.0    999000   999000   999.0    999000   999.0
 150   22:45   38.1    72    6.6   125    10.2   999.00    693.7    999.0    999000   999000   999.0    999000   999.0
 150   22:50   38.1    72    6.0   122     8.3   999.00    693.7    999.0    999000   999000   999.0    999000   999.0
 150   22:55   38.3    72    9.0   127    11.5   999.00    693.7    999.0    999000   999000   999.0    999000   999.0
 150   23:00   38.3    71    9.2   128    11.8   999.00    693.6    999.0    999000   999000   999.0    999000   999.0
 150   23:05   38.4    71    4.9   121     7.2   999.00    693.7    999.0    999000   999000   999.0    999000   999.0
 150   23:10   38.3    71    6.4   123     8.5   999.00    693.6    999.0    999000   999000   999.0    999000   999.0
 150   23:15   38.4    71    6.9   126     9.1   999.00    693.6    999.0    999000   999000   999.0    999000   999.0
 150   23:20   38.2    72    8.3   126    11.7   999.00    693.5    999.0    999000   999000   999.0    999000   999.0
 150   23:25   38.3    71   10.7   133    13.0   999.00    693.5    999.0    999000   999000   999.0    999000   999.0
 150   23:30   38.4    71   10.4   131    13.3   999.00    693.5    999.0    999000   999000   999.0    999000   999.0
 150   23:35   38.4    73    8.6   125    11.1   999.00    693.5    999.0    999000   999000   999.0    999000   999.0
 150   23:40   38.0    74   10.1   130    12.6   999.00    693.5    999.0    999000   999000   999.0    999000   999.0
 150   23:45   37.9    74    9.5   131    11.5   999.00    693.5    999.0    999000   999000   999.0    999000   999.0
 150   23:50   38.0    73    9.1   131    11.7   999.00    693.4    999.0    999000   999000   999.0    999000   999.0
 150   23:55   38.3    70    8.4   136    10.6   999.00    693.4    999.0    999000   999000   999.0    999000   999.0
 151    0:00   38.7    68    9.0   139    10.0   999.00    693.3    999.0    999000   999000   999.0    999000   999.0
 151    0:05   38.8    68    9.6   134    10.9   999.00    693.4    999.0    999000   999000   999.0    999000   999.0
 151    0:10   38.6    69    8.6   132    10.4   999.00    693.3    999.0    999000   999000   999.0    999000   999.0
 151    0:15   38.7    68    8.6   139     9.8   999.00    693.3    999.0    999000   999000   999.0    999000   999.0
 151    0:20   39.1    67    8.9   138    10.7   999.00    693.3    999.0    999000   999000   999.0    999000   999.0
 151    0:25   39.2    66    9.5   142    11.5   999.00    693.2    999.0    999000   999000   999.0    999000   999.0
 151    0:30   39.4    66    9.0   144    11.3   999.00    693.2    999.0    999000   999000   999.0    999000   999.0
 151    0:35   39.3    65    8.6   145    10.0   999.00    693.2    999.0    999000   999000   999.0    999000   999.0
 151    0:40   39.7    64    8.7   148    10.2   999.00    693.2    999.0    999000   999000   999.0    999000   999.0
 151    0:45   39.6    64    8.8   149    10.4   999.00    693.1    999.0    999000   999000   999.0    999000   999.0
 151    0:50   39.7    64    8.9   150    11.5   999.00    693.1    999.0    999000   999000   999.0    999000   999.0
 151    0:55   39.9    63    9.3   147    11.8   999.00    693.1    999.0    999000   999000   999.0    999000   999.0
 151    1:00   39.5    64   10.4   134    13.2   999.00    693.1    999.0    999000   999000   999.0    999000   999.0
 151    1:05   38.9    66    9.8   131    11.7   999.00    693.0    999.0    999000   999000   999.0    999000   999.0
 151    1:10   38.6    67   11.0   131    12.8   999.00    693.0    999.0    999000   999000   999.0    999000   999.0
 151    1:15   38.6    67   10.7   131    13.0   999.00    693.0    999.0    999000   999000   999.0    999000   999.0
 151    1:20   38.6    68   10.0   131    14.8   999.00    693.0    999.0    999000   999000   999.0    999000   999.0
 151    1:25   38.5    68   10.9   131    12.6   999.00    693.0    999.0    999000   999000   999.0    999000   999.0
 151    1:30   38.5    68    9.6   134    13.0   999.00    693.0    999.0    999000   999000   999.0    999000   999.0
 151    1:35   38.4    68   10.0   131    12.0   999.00    693.0    999.0    999000   999000   999.0    999000   999.0
 151    1:40   38.7    67   10.2   132    12.4   999.00    693.0    999.0    999000   999000   999.0    999000   999.0
 151    1:45   38.7    68    9.3   127    13.3   999.00    692.8    999.0    999000   999000   999.0    999000   999.0
 151    1:50   38.4    68    6.6   122    10.4   999.00    692.8    999.0    999000   999000   999.0    999000   999.0
 151    1:55   38.0    70    6.0   121     8.7   999.00    692.8    999.0    999000   999000   999.0    999000   999.0
 151    2:00   38.0    70    6.8   126     7.9   999.00    692.8    999.0    999000   999000   999.0    999000   999.0
 151    2:05   38.3    69    7.0   133     9.4   999.00    692.8    999.0    999000   999000   999.0    999000   999.0
 151    2:10   38.5    67    7.8   139    10.9   999.00    692.8    999.0    999000   999000   999.0    999000   999.0
 151    2:15   39.0    66    6.9   131    10.6   999.00    692.9    999.0    999000   999000   999.0    999000   999.0
 151    2:20   38.7    66    6.7   136     8.3   999.00    692.9    999.0    999000   999000   999.0    999000   999.0
 151    2:25   38.8    66    7.5   136    11.3   999.00    692.8    999.0    999000   999000   999.0    999000   999.0
 151    2:30   38.9    66    5.5   124     8.3   999.00    692.8    999.0    999000   999000   999.0    999000   999.0
 151    2:35   38.6    66    5.8   129     8.9   999.00    692.7    999.0    999000   999000   999.0    999000   999.0
 151    2:40   39.1    64    5.6   134     8.3   999.00    692.7    999.0    999000   999000   999.0    999000   999.0
 151    2:45   39.1    65    7.0   133    10.0   999.00    692.7    999.0    999000   999000   999.0    999000   999.0
 151    2:50   38.8    65    5.6   128    10.9   999.00    692.7    999.0    999000   999000   999.0    999000   999.0
 151    2:55   38.8    66    6.2   133     8.9   999.00    692.7    999.0    999000   999000   999.0    999000   999.0
 151    3:00   38.5    67    6.8   133    12.6   999.00    692.7    999.0    999000   999000   999.0    999000   999.0
 151    3:05   38.9    65    5.9   142     8.3   999.00    692.7    999.0    999000   999000   999.0    999000   999.0
 151    3:10   39.2    64    4.9   145     7.6   999.00    692.7    999.0    999000   999000   999.0    999000   999.0
 151    3:15   39.4    63    4.4   155     6.6   999.00    692.7    999.0    999000   999000   999.0    999000   999.0
 151    3:20   39.7    62    4.1   161     7.6   999.00    692.7    999.0    999000   999000   999.0    999000   999.0
 151    3:25   40.0    61    3.8   145     6.8   999.00    692.7    999.0    999000   999000   999.0    999000   999.0
 151    3:30   40.0    60    4.2   170     5.9   999.00    692.7    999.0    999000   999000   999.0    999000   999.0
 151    3:35   40.2    59    3.9   171     6.5   999.00    692.7    999.0    999000   999000   999.0    999000   999.0
 151    3:40   40.0    61    5.0   153     6.5   999.00    692.7    999.0    999000   999000   999.0    999000   999.0
 151    3:45   39.8    62    3.9   156     5.7   999.00    692.6    999.0    999000   999000   999.0    999000   999.0
 151    3:50   39.8    62    4.1   162     6.3   999.00    692.6    999.0    999000   999000   999.0    999000   999.0
 151    3:55   39.8    61    3.5   162     5.2   999.00    692.7    999.0    999000   999000   999.0    999000   999.0
 151    4:00   39.8    61    3.9   160     6.1   999.00    692.7    999.0    999000   999000   999.0    999000   999.0
 151    4:05   39.8    62    4.0   157     5.2   999.00    692.6    999.0    999000   999000   999.0    999000   999.0
 151    4:10   39.8    61    4.1   169     6.3   999.00    692.6    999.0    999000   999000   999.0    999000   999.0
 151    4:15   39.9    61    3.8   161     6.3   999.00    692.7    999.0    999000   999000   999.0    999000   999.0
 151    4:20   39.7    62    3.4   167     4.6   999.00    692.6    999.0    999000   999000   999.0    999000   999.0
 151    4:25   39.7    62    3.3   166     3.8   999.00    692.6    999.0    999000   999000   999.0    999000   999.0
 151    4:30   39.8    61    3.3   169     4.4   999.00    692.7    999.0    999000   999000   999.0    999000   999.0
 151    4:35   39.9    60    3.2   169     4.0   999.00    692.6    999.0    999000   999000   999.0    999000   999.0
 151    4:40   40.3    58    3.3   186     4.6   999.00    692.6    999.0    999000   999000   999.0    999000   999.0
 151    4:45   40.3    58    2.8   188     3.3   999.00    692.7    999.0    999000   999000   999.0    999000   999.0
 151    4:50   40.1    59    2.8   186     3.1   999.00    692.7    999.0    999000   999000   999.0    999000   999.0
 151    4:55   39.8    60    3.1   176     3.7   999.00    692.7    999.0    999000   999000   999.0    999000   999.0
 151    5:00   39.9    60    3.0   171     3.5   999.00    692.7    999.0    999000   999000   999.0    999000   999.0
 151    5:05   40.0    59    3.3   173     4.8   999.00    692.7    999.0    999000   999000   999.0    999000   999.0
 151    5:10   40.0    60    4.2   161     5.9   999.00    692.6    999.0    999000   999000   999.0    999000   999.0
 151    5:15   39.9    60    4.0   157     4.6   999.00    692.6    999.0    999000   999000   999.0    999000   999.0
 151    5:20   39.9    60    3.8   154     4.8   999.00    692.6    999.0    999000   999000   999.0    999000   999.0
 151    5:25   40.0    59    3.2   155     3.7   999.00    692.6    999.0    999000   999000   999.0    999000   999.0
 151    5:30   40.2    59    3.4   160     4.2   999.00    692.6    999.0    999000   999000   999.0    999000   999.0
 151    5:35   40.4    58    3.7   175     5.2   999.00    692.6    999.0    999000   999000   999.0    999000   999.0
 151    5:40   40.5    57    2.9   185     4.0   999.00    692.6    999.0    999000   999000   999.0    999000   999.0
 151    5:45   40.4    58    3.2   185     5.3   999.00    692.6    999.0    999000   999000   999.0    999000   999.0
 151    5:50   40.5    56    3.4   207     4.6   999.00    692.6    999.0    999000   999000   999.0    999000   999.0
 151    5:55   40.5    56    4.9   215     9.1   999.00    692.6    999.0    999000   999000   999.0    999000   999.0
 151    6:00   40.4    56    4.7   214     8.5   999.00    692.6    999.0    999000   999000   999.0    999000   999.0
 151    6:05   40.0    57    3.3   209     4.8   999.00    692.6    999.0    999000   999000   999.0    999000   999.0
 151    6:10   39.7    58    3.8   211     6.8   999.00    692.6    999.0    999000   999000   999.0    999000   999.0
 151    6:15   39.8    58    4.0   216     6.5   999.00    692.6    999.0    999000   999000   999.0    999000   999.0
 151    6:20   39.7    58    4.6   218     6.8   999.00    692.6    999.0    999000   999000   999.0    999000   999.0
 151    6:25   39.6    59    4.6   212     7.2   999.00    692.6    999.0    999000   999000   999.0    999000   999.0
 151    6:30   39.4    60    4.7   206     9.1   999.00    692.6    999.0    999000   999000   999.0    999000   999.0
 151    6:35   39.2    60    5.5   204    10.0   999.00    692.6    999.0    999000   999000   999.0    999000   999.0
 151    6:40   39.1    61    7.0   197    10.4   999.00    692.7    999.0    999000   999000   999.0    999000   999.0
 151    6:45   39.0    61    8.8   199    13.3   999.00    692.6    999.0    999000   999000   999.0    999000   999.0
 151    6:50   39.0    62    6.8   202    11.8   999.00    692.6    999.0    999000   999000   999.0    999000   999.0
 151    6:55   38.8    62    8.5   196    13.0   999.00    692.6    999.0    999000   999000   999.0    999000   999.0
 151    7:00   38.3    64    8.7   196    13.7   999.00    692.6    999.0    999000   999000   999.0    999000   999.0
 151    7:05   38.3    65    6.7   181     9.6   999.00    692.6    999.0    999000   999000   999.0    999000   999.0
 151    7:10   38.4    65    7.2   179    10.7   999.00    692.6    999.0    999000   999000   999.0    999000   999.0
 151    7:15   38.0    66    7.2   187    10.6   999.00    692.6    999.0    999000   999000   999.0    999000   999.0
 151    7:20   37.8    65    7.1   192    11.5   999.00    692.7    999.0    999000   999000   999.0    999000   999.0
 151    7:25   37.9    64    6.7   200    10.2   999.00    692.7    999.0    999000   999000   999.0    999000   999.0
 151    7:30   37.8    65    4.4   184     6.8   999.00    692.6    999.0    999000   999000   999.0    999000   999.0
 151    7:35   38.4    62    4.6   197     7.2   999.00    692.6    999.0    999000   999000   999.0    999000   999.0
 151    7:40   38.5    62    5.6   197     8.3   999.00    692.7    999.0    999000   999000   999.0    999000   999.0
 151    7:45   38.5    62    6.0   200     8.5   999.00    692.7    999.0    999000   999000   999.0    999000   999.0
 151    7:50   38.5    63    5.2   205     9.1   999.00    692.6    999.0    999000   999000   999.0    999000   999.0
 151    7:55   38.6    62    4.6   209     6.8   999.00    692.6    999.0    999000   999000   999.0    999000   999.0
 151    8:00   38.8    62    5.5   198     8.7   999.00    692.6    999.0    999000   999000   999.0    999000   999.0
 151    8:05   38.9    62    5.4   205     8.7   999.00    692.6    999.0    999000   999000   999.0    999000   999.0
 151    8:10   39.1    62    5.5   218     9.8   999.00    692.6    999.0    999000   999000   999.0    999000   999.0
 151    8:15   38.9    63    4.2   211     7.8   999.00    692.6    999.0    999000   999000   999.0    999000   999.0
 151    8:20   38.3    66    4.5   212     7.9   999.00    692.6    999.0    999000   999000   999.0    999000   999.0
 151    8:25   37.9    68    4.7   205     8.3   999.00    692.6    999.0    999000   999000   999.0    999000   999.0
 151    8:30   37.7    68    4.3   219     7.0   999.00    692.6    999.0    999000   999000   999.0    999000   999.0
 151    8:35   37.8    68    4.9   217    10.2   999.00    692.6    999.0    999000   999000   999.0    999000   999.0
 151    8:40   37.8    68    4.6   220     8.3   999.00    692.5    999.0    999000   999000   999.0    999000   999.0
 151    8:45   38.0    67    6.6   240     9.4   999.00    692.6    999.0    999000   999000   999.0    999000   999.0
 151    8:50   37.6    69    3.9   242     8.3   999.00    692.5    999.0    999000   999000   999.0    999000   999.0
 151    8:55   37.9    69    4.4   252     8.3   999.00    692.6    999.0    999000   999000   999.0    999000   999.0
 151    9:00   37.9    71    4.2   267     5.7   999.00    692.7    999.0    999000   999000   999.0    999000   999.0
 151    9:05   37.9    72    4.0   266     6.6   999.00    692.6    999.0    999000   999000   999.0    999000   999.0
 151    9:10   38.1    72    3.4   266     5.0   999.00    692.6    999.0    999000   999000   999.0    999000   999.0
 151    9:15   37.9    74    3.6   269     5.3   999.00    692.7    999.0    999000   999000   999.0    999000   999.0
 151    9:20   37.9    74    3.4   269     4.8   999.00    692.6    999.0    999000   999000   999.0    999000   999.0
 151    9:25   38.0    75    4.7   271     7.2   999.00    692.7    999.0    999000   999000   999.0    999000   999.0
 151    9:30   38.1    72    4.6   285     7.9   999.00    692.7    999.0    999000   999000   999.0    999000   999.0
 151    9:35   38.8    72    5.8   294     8.3   999.00    692.7    999.0    999000   999000   999.0    999000   999.0
 151    9:40   38.6    74    6.2   268    11.7   999.00    692.7    999.0    999000   999000   999.0    999000   999.0
 151    9:45   38.7    74    7.1   272    11.1   999.00    692.7    999.0    999000   999000   999.0    999000   999.0
 151    9:50   38.5    73    9.4   268    13.9   999.00    692.7    999.0    999000   999000   999.0    999000   999.0
 151    9:55   38.7    74    6.8   278    10.4   999.00    692.8    999.0    999000   999000   999.0    999000   999.0
 151   10:00   39.2    75    5.3   291     9.1   999.00    692.8    999.0    999000   999000   999.0    999000   999.0
 151   10:05   39.4    75    7.0   261    13.5   999.00    692.8    999.0    999000   999000   999.0    999000   999.0
 151   10:10   38.6    76    6.1   279    12.6   999.00    692.8    999.0    999000   999000   999.0    999000   999.0
 151   10:15   39.0    74    9.1   274    13.2   999.00    692.8    999.0    999000   999000   999.0    999000   999.0
 151   10:20   39.1    77    4.7   275     8.5   999.00    692.9    999.0    999000   999000   999.0    999000   999.0
 151   10:25   39.1    79    6.8   283    14.4   999.00    692.9    999.0    999000   999000   999.0    999000   999.0
 151   10:30   39.1    78    5.5   263     9.4   999.00    693.0    999.0    999000   999000   999.0    999000   999.0
 151   10:35   39.6    77    6.8   274    10.9   999.00    693.0    999.0    999000   999000   999.0    999000   999.0
 151   10:40   39.5    74    9.1   277    13.0   999.00    692.9    999.0    999000   999000   999.0    999000   999.0
 151   10:45   39.8    75    9.4   276    13.3   999.00    692.8    999.0    999000   999000   999.0    999000   999.0
 151   10:50   40.3    73    9.1   278    18.4   999.00    692.8    999.0    999000   999000   999.0    999000   999.0
 151   10:55   40.6    72    7.1   279    13.0   999.00    692.8    999.0    999000   999000   999.0    999000   999.0
 151   11:00   40.5    74    8.8   291    12.8   999.00    692.8    999.0    999000   999000   999.0    999000   999.0
 151   11:05   40.7    73    8.6   270    13.3   999.00    692.8    999.0    999000   999000   999.0    999000   999.0
 151   11:10   40.9    71   10.2   279    14.1   999.00    692.8    999.0    999000   999000   999.0    999000   999.0
 151   11:15   40.8    73    7.6   266    11.8   999.00    692.8    999.0    999000   999000   999.0    999000   999.0
 151   11:20   40.2    76    7.6   270    11.5   999.00    692.8    999.0    999000   999000   999.0    999000   999.0
 151   11:25   41.2    72    8.3   285    11.7   999.00    692.7    999.0    999000   999000   999.0    999000   999.0
 151   11:30   40.8    72   11.0   272    18.0   999.00    692.7    999.0    999000   999000   999.0    999000   999.0
 151   11:35   41.3    72   10.2   276    15.4   999.00    692.7    999.0    999000   999000   999.0    999000   999.0
 151   11:40   41.6    75    9.0   289    14.1   999.00    692.6    999.0    999000   999000   999.0    999000   999.0
 151   11:45   40.3    79   13.9   296    16.7   999.00    692.6    999.0    999000   999000   999.0    999000   999.0
 151   11:50   40.5    78   10.3   289    15.4   999.00    692.6    999.0    999000   999000   999.0    999000   999.0
 151   11:55   41.3    73   13.0   278    16.9   999.00    692.5    999.0    999000   999000   999.0    999000   999.0
 151   12:00   41.5    74   10.9   287    16.5   999.00    692.5    999.0    999000   999000   999.0    999000   999.0
 151   12:05   41.3    72   13.5   298    19.7   999.00    692.4    999.0    999000   999000   999.0    999000   999.0
 151   12:10   41.3    70   17.2   294    24.1   999.00    692.3    999.0    999000   999000   999.0    999000   999.0
 151   12:15   42.0    67   17.3   299    22.3   999.00    692.2    999.0    999000   999000   999.0    999000   999.0
 151   12:20   41.9    68   15.2   297    23.0   999.00    692.3    999.0    999000   999000   999.0    999000   999.0
 151   12:25   42.4    67   13.2   283    18.9   999.00    692.4    999.0    999000   999000   999.0    999000   999.0
 151   12:30   42.8    65   13.2   276    20.2   999.00    692.4    999.0    999000   999000   999.0    999000   999.0
 151   12:35   42.4    66   14.1   288    19.3   999.00    692.4    999.0    999000   999000   999.0    999000   999.0
 151   12:40   41.6    67   12.0   289    19.9   999.00    692.4    999.0    999000   999000   999.0    999000   999.0
 151   12:45   41.9    65    9.5   281    18.2   999.00    692.5    999.0    999000   999000   999.0    999000   999.0
 151   12:50   42.3    65   10.4   273    16.3   999.00    692.5    999.0    999000   999000   999.0    999000   999.0
 151   12:55   42.6    65   13.2   274    19.7   999.00    692.3    999.0    999000   999000   999.0    999000   999.0
 151   13:00   43.0    65   11.7   279    18.9   999.00    692.4    999.0    999000   999000   999.0    999000   999.0
 151   13:05   42.8    65   11.3   303    18.2   999.00    692.2    999.0    999000   999000   999.0    999000   999.0
 151   13:10   42.6    63   15.1   302    22.1   999.00    692.2    999.0    999000   999000   999.0    999000   999.0
 151   13:15   42.7    63   11.9   274    17.4   999.00    692.3    999.0    999000   999000   999.0    999000   999.0
 151   13:20   42.3    66   11.8   285    19.3   999.00    692.3    999.0    999000   999000   999.0    999000   999.0
 151   13:25   43.3    63   15.8   284    22.1   999.00    692.2    999.0    999000   999000   999.0    999000   999.0
 151   13:30   42.9    65   14.6   288    21.0   999.00    692.2    999.0    999000   999000   999.0    999000   999.0
 151   13:35   42.5    63   15.6   297    22.6   999.00    692.1    999.0    999000   999000   999.0    999000   999.0
 151   13:40   42.8    63   14.6   293    21.1   999.00    692.1    999.0    999000   999000   999.0    999000   999.0
 151   13:45   42.7    65   16.4   298    23.4   999.00    692.0    999.0    999000   999000   999.0    999000   999.0
 151   13:50   43.4    61   19.0   281    25.2   999.00    692.0    999.0    999000   999000   999.0    999000   999.0
 151   13:55   43.9    59   15.9   290    21.9   999.00    692.0    999.0    999000   999000   999.0    999000   999.0
 151   14:00   43.7    60   15.6   284    19.1   999.00    692.0    999.0    999000   999000   999.0    999000   999.0
 151   14:05   43.7    62   16.1   306    21.0   999.00    691.9    999.0    999000   999000   999.0    999000   999.0
 151   14:10   43.4    64   15.9   304    22.1   999.00    691.9    999.0    999000   999000   999.0    999000   999.0
 151   14:15   43.2    63   14.6   300    23.6   999.00    692.0    999.0    999000   999000   999.0    999000   999.0
 151   14:20   44.2    59   16.8   290    23.8   999.00    691.9    999.0    999000   999000   999.0    999000   999.0
 151   14:25   44.3    59   15.0   307    21.3   999.00    691.8    999.0    999000   999000   999.0    999000   999.0
 151   14:30   44.6    61   11.0   294    17.8   999.00    691.9    999.0    999000   999000   999.0    999000   999.0
 151   14:35   44.6    60   13.7   300    22.3   999.00    691.8    999.0    999000   999000   999.0    999000   999.0
 151   14:40   45.2    56   17.0   286    25.4   999.00    691.8    999.0    999000   999000   999.0    999000   999.0
 151   14:45   44.4    57   16.3   286    23.0   999.00    691.7    999.0    999000   999000   999.0    999000   999.0
 151   14:50   43.6    60   16.2   278    21.0   999.00    691.7    999.0    999000   999000   999.0    999000   999.0
 151   14:55   43.2    60   18.9   301    24.3   999.00    691.6    999.0    999000   999000   999.0    999000   999.0
 151   15:00   43.3    57   19.3   289    24.7   999.00    691.6    999.0    999000   999000   999.0    999000   999.0
 151   15:05   44.0    56   18.4   281    22.8   999.00    691.7    999.0    999000   999000   999.0    999000   999.0
 151   15:10   44.2    56   18.2   275    25.2   999.00    691.8    999.0    999000   999000   999.0    999000   999.0
 151   15:15   44.1    58   14.6   280    22.5   999.00    691.8    999.0    999000   999000   999.0    999000   999.0
 151   15:20   43.9    59   15.9   290    21.3   999.00    691.7    999.0    999000   999000   999.0    999000   999.0
 151   15:25   44.5    54   16.6   286    24.7   999.00    691.7    999.0    999000   999000   999.0    999000   999.0
 151   15:30   45.2    52   15.2   279    20.8   999.00    691.7    999.0    999000   999000   999.0    999000   999.0
 151   15:35   45.2    52   12.3   277    19.9   999.00    691.6    999.0    999000   999000   999.0    999000   999.0
 151   15:40   44.6    56   15.3   285    20.8   999.00    691.4    999.0    999000   999000   999.0    999000   999.0
 151   15:45   44.3    58   15.1   288    20.8   999.00    691.5    999.0    999000   999000   999.0    999000   999.0
 151   15:50   44.5    59   16.3   276    22.6   999.00    691.5    999.0    999000   999000   999.0    999000   999.0
 151   15:55   44.8    57   15.2   292    21.5   999.00    691.4    999.0    999000   999000   999.0    999000   999.0
 151   16:00   44.6    56   17.8   289    22.8   999.00    691.4    999.0    999000   999000   999.0    999000   999.0
 151   16:05   45.2    55   15.6   302    23.8   999.00    691.5    999.0    999000   999000   999.0    999000   999.0
 151   16:10   44.6    54   20.8   295    25.6   999.00    691.4    999.0    999000   999000   999.0    999000   999.0
 151   16:15   44.2    56   16.0   282    21.7   999.00    691.6    999.0    999000   999000   999.0    999000   999.0
 151   16:20   44.7    55   19.1   263    24.7   999.00    691.7    999.0    999000   999000   999.0    999000   999.0
 151   16:25   44.1    58   11.5   285    22.1   999.00    691.8    999.0    999000   999000   999.0    999000   999.0
 151   16:30   44.6    58   16.8   294    22.1   999.00    691.7    999.0    999000   999000   999.0    999000   999.0
 151   16:35   43.8    59   14.7   295    19.5   999.00    691.7    999.0    999000   999000   999.0    999000   999.0
 151   16:40   43.5    61   14.2   278    21.0   999.00    691.8    999.0    999000   999000   999.0    999000   999.0
 151   16:45   43.6    60   13.6   286    19.7   999.00    691.8    999.0    999000   999000   999.0    999000   999.0
 151   16:50   44.9    56   19.5   284    25.8   999.00    691.6    999.0    999000   999000   999.0    999000   999.0
 151   16:55   44.3    57   16.7   277    22.3   999.00    691.7    999.0    999000   999000   999.0    999000   999.0
 151   17:00   44.4    57   19.9   293    27.1   999.00    691.6    999.0    999000   999000   999.0    999000   999.0
 151   17:05   44.3    59   17.9   282    24.7   999.00    691.7    999.0    999000   999000   999.0    999000   999.0
 151   17:10   44.7    59   16.4   294    24.3   999.00    691.7    999.0    999000   999000   999.0    999000   999.0
 151   17:15   44.2    58   18.8   290    24.3   999.00    691.7    999.0    999000   999000   999.0    999000   999.0
 151   17:20   43.6    61   14.7   287    20.8   999.00    691.8    999.0    999000   999000   999.0    999000   999.0
 151   17:25   44.0    60   15.0   288    21.1   999.00    691.9    999.0    999000   999000   999.0    999000   999.0
 151   17:30   44.2    60   14.9   281    18.7   999.00    691.9    999.0    999000   999000   999.0    999000   999.0
 151   17:35   44.7    58   12.6   292    18.5   999.00    692.0    999.0    999000   999000   999.0    999000   999.0
 151   17:40   43.9    58   15.6   298    20.6   999.00    691.9    999.0    999000   999000   999.0    999000   999.0
 151   17:45   43.4    60   14.7   289    19.1   999.00    691.9    999.0    999000   999000   999.0    999000   999.0
 151   17:50   43.1    61   13.7   287    19.9   999.00    692.0    999.0    999000   999000   999.0    999000   999.0
 151   17:55   42.8    62   12.2   283    16.1   999.00    692.0    999.0    999000   999000   999.0    999000   999.0
 151   18:00   42.5    58   16.2   254    21.9   999.00    692.2    999.0    999000   999000   999.0    999000   999.0
 151   18:05   41.7    64   12.6   250    22.3   999.00    692.2    999.0    999000   999000   999.0    999000   999.0
 151   18:10   41.1    66   13.1   222    18.9   999.00    692.2    999.0    999000   999000   999.0    999000   999.0
 151   18:15   39.7    70   11.3   203    20.0   999.00    692.3    999.0    999000   999000   999.0    999000   999.0
 151   18:20   39.5    71   12.4   192    19.3   999.00    692.2    999.0    999000   999000   999.0    999000   999.0
 151   18:25   40.1    69    9.9   182    15.4   999.00    692.2    999.0    999000   999000   999.0    999000   999.0
 151   18:30   40.6    66   12.1   196    19.7   999.00    692.2    999.0    999000   999000   999.0    999000   999.0
 151   18:35   41.1    65    9.2   183    15.0   999.00    692.1    999.0    999000   999000   999.0    999000   999.0
 151   18:40   41.2    65    6.9   183    11.1   999.00    692.2    999.0    999000   999000   999.0    999000   999.0
 151   18:45   40.9    66    8.3   182    12.6   999.00    692.2    999.0    999000   999000   999.0    999000   999.0
 151   18:50   41.0    66   10.0   177    15.0   999.00    692.1    999.0    999000   999000   999.0    999000   999.0
 151   18:55   40.3    69    6.6   169     9.1   999.00    692.1    999.0    999000   999000   999.0    999000   999.0
 151   19:00   40.0    69    6.4   188     9.6   999.00    692.1    999.0    999000   999000   999.0    999000   999.0
 151   19:05   40.5    65    9.8   218    16.1   999.00    692.1    999.0    999000   999000   999.0    999000   999.0

Return to DRI Storm Peak Lab. graphs page.


Western Regional Climate Center,wrcc@dri.edu